sensor_id;sensor_type;location;lat;lon;timestamp;pressure;altitude;pressure_sealevel;temperature;humidity
76052;BME280;64751;48.708;9.710;2022-11-20T00:01:47;97084.38;;;7.32;81.56
76052;BME280;64751;48.708;9.710;2022-11-20T00:04:14;97086.22;;;7.31;81.45
76052;BME280;64751;48.708;9.710;2022-11-20T00:06:42;97083.06;;;7.29;81.25
76052;BME280;64751;48.708;9.710;2022-11-20T00:09:10;97071.53;;;7.25;80.76
76052;BME280;64751;48.708;9.710;2022-11-20T00:11:37;97079.41;;;7.20;80.89
76052;BME280;64751;48.708;9.710;2022-11-20T00:14:06;97076.78;;;7.15;80.95
76052;BME280;64751;48.708;9.710;2022-11-20T00:16:33;97081.00;;;7.11;81.01
76052;BME280;64751;48.708;9.710;2022-11-20T00:19:01;97075.75;;;7.06;80.43
76052;BME280;64751;48.708;9.710;2022-11-20T00:21:29;97075.78;;;7.01;80.85
76052;BME280;64751;48.708;9.710;2022-11-20T00:23:57;97084.69;;;6.95;81.08
76052;BME280;64751;48.708;9.710;2022-11-20T00:26:26;97081.28;;;6.85;81.02
76052;BME280;64751;48.708;9.710;2022-11-20T00:28:56;97083.66;;;6.76;80.24
76052;BME280;64751;48.708;9.710;2022-11-20T00:31:26;97082.63;;;6.72;80.10
76052;BME280;64751;48.708;9.710;2022-11-20T00:33:54;97084.16;;;6.68;80.73
76052;BME280;64751;48.708;9.710;2022-11-20T00:36:24;97084.69;;;6.60;80.75
76052;BME280;64751;48.708;9.710;2022-11-20T00:38:53;97084.69;;;6.60;80.85
76052;BME280;64751;48.708;9.710;2022-11-20T00:41:21;97082.34;;;6.53;80.87
76052;BME280;64751;48.708;9.710;2022-11-20T00:43:49;97087.56;;;6.48;80.86
76052;BME280;64751;48.708;9.710;2022-11-20T00:46:18;97087.31;;;6.45;80.15
76052;BME280;64751;48.708;9.710;2022-11-20T00:48:48;97095.19;;;6.40;80.87
76052;BME280;64751;48.708;9.710;2022-11-20T00:51:18;97087.81;;;6.37;80.38
76052;BME280;64751;48.708;9.710;2022-11-20T00:53:46;97086.50;;;6.34;80.46
76052;BME280;64751;48.708;9.710;2022-11-20T00:56:15;97088.59;;;6.27;80.73
76052;BME280;64751;48.708;9.710;2022-11-20T00:58:44;97090.44;;;6.27;80.69
76052;BME280;64751;48.708;9.710;2022-11-20T01:01:14;97090.41;;;6.22;80.55
76052;BME280;64751;48.708;9.710;2022-11-20T01:03:44;97095.66;;;6.17;80.54
76052;BME280;64751;48.708;9.710;2022-11-20T01:06:15;97095.38;;;6.13;80.60
76052;BME280;64751;48.708;9.710;2022-11-20T01:08:44;97100.34;;;6.10;80.42
76052;BME280;64751;48.708;9.710;2022-11-20T01:11:13;97099.28;;;6.06;80.63
76052;BME280;64751;48.708;9.710;2022-11-20T01:13:42;97096.16;;;6.09;81.01
76052;BME280;64751;48.708;9.710;2022-11-20T01:16:15;97095.63;;;6.07;80.74
76052;BME280;64751;48.708;9.710;2022-11-20T01:18:44;97100.34;;;6.10;80.47
76052;BME280;64751;48.708;9.710;2022-11-20T01:21:15;97101.66;;;6.07;79.96
76052;BME280;64751;48.708;9.710;2022-11-20T01:23:43;97105.06;;;6.03;80.15
76052;BME280;64751;48.708;9.710;2022-11-20T01:26:13;97095.84;;;5.95;79.70
76052;BME280;64751;48.708;9.710;2022-11-20T01:28:41;97096.38;;;5.87;80.22
76052;BME280;64751;48.708;9.710;2022-11-20T01:31:14;97112.38;;;5.96;80.47
76052;BME280;64751;48.708;9.710;2022-11-20T01:33:42;97101.06;;;5.85;80.39
76052;BME280;64751;48.708;9.710;2022-11-20T01:36:11;97112.31;;;5.85;79.54
76052;BME280;64751;48.708;9.710;2022-11-20T01:38:41;97111.72;;;5.78;79.78
76052;BME280;64751;48.708;9.710;2022-11-20T01:41:10;97111.22;;;5.76;79.04
76052;BME280;64751;48.708;9.710;2022-11-20T01:43:59;97111.97;;;5.67;79.55
76052;BME280;64751;48.708;9.710;2022-11-20T01:46:25;97110.13;;;5.67;79.43
76052;BME280;64751;48.708;9.710;2022-11-20T01:48:55;97111.41;;;5.65;79.61
76052;BME280;64751;48.708;9.710;2022-11-20T01:51:28;97117.72;;;5.64;79.09
76052;BME280;64751;48.708;9.710;2022-11-20T01:54:01;97107.72;;;5.56;79.08
76052;BME280;64751;48.708;9.710;2022-11-20T01:56:31;97109.03;;;5.53;79.92
76052;BME280;64751;48.708;9.710;2022-11-20T01:59:02;97106.41;;;5.53;79.83
76052;BME280;64751;48.708;9.710;2022-11-20T02:01:31;97105.34;;;5.54;79.92
76052;BME280;64751;48.708;9.710;2022-11-20T02:03:59;97107.47;;;5.57;80.02
76052;BME280;64751;48.708;9.710;2022-11-20T02:06:31;97112.41;;;5.54;80.13
76052;BME280;64751;48.708;9.710;2022-11-20T02:09:04;97115.81;;;5.54;79.96
76052;BME280;64751;48.708;9.710;2022-11-20T02:11:32;97113.19;;;5.54;80.17
76052;BME280;64751;48.708;9.710;2022-11-20T02:14:00;97115.28;;;5.52;80.36
76052;BME280;64751;48.708;9.710;2022-11-20T02:16:29;97112.94;;;5.51;80.78
76052;BME280;64751;48.708;9.710;2022-11-20T02:18:59;97114.00;;;5.55;80.51
76052;BME280;64751;48.708;9.710;2022-11-20T02:21:33;97112.66;;;5.52;80.46
76052;BME280;64751;48.708;9.710;2022-11-20T02:24:09;97109.53;;;5.50;79.55
76052;BME280;64751;48.708;9.710;2022-11-20T02:26:41;97114.22;;;5.48;80.69
76052;BME280;64751;48.708;9.710;2022-11-20T02:29:10;97110.53;;;5.49;81.05
76052;BME280;64751;48.708;9.710;2022-11-20T02:31:40;97118.97;;;5.51;80.41
76052;BME280;64751;48.708;9.710;2022-11-20T02:34:09;97115.81;;;5.54;80.54
76052;BME280;64751;48.708;9.710;2022-11-20T02:36:39;97106.91;;;5.50;79.83
76052;BME280;64751;48.708;9.710;2022-11-20T02:39:09;97109.78;;;5.49;80.10
76052;BME280;64751;48.708;9.710;2022-11-20T02:41:39;97108.69;;;5.45;79.71
76052;BME280;64751;48.708;9.710;2022-11-20T02:44:06;97110.53;;;5.44;79.97
76052;BME280;64751;48.708;9.710;2022-11-20T02:46:34;97115.00;;;5.44;79.81
76052;BME280;64751;48.708;9.710;2022-11-20T02:49:02;97107.34;;;5.37;80.56
76052;BME280;64751;48.708;9.710;2022-11-20T02:51:30;97117.56;;;5.39;80.53
76052;BME280;64751;48.708;9.710;2022-11-20T02:53:58;97100.56;;;5.41;80.00
76052;BME280;64751;48.708;9.710;2022-11-20T02:56:27;97096.88;;;5.37;80.52
76052;BME280;64751;48.708;9.710;2022-11-20T02:58:55;97104.22;;;5.35;79.76
76052;BME280;64751;48.708;9.710;2022-11-20T03:01:22;97113.88;;;5.35;79.81
76052;BME280;64751;48.708;9.710;2022-11-20T03:03:50;97105.19;;;5.29;79.01
76052;BME280;64751;48.708;9.710;2022-11-20T03:06:21;97106.53;;;5.27;79.11
76052;BME280;64751;48.708;9.710;2022-11-20T03:08:49;97099.66;;;5.16;79.28
76052;BME280;64751;48.708;9.710;2022-11-20T03:11:17;97104.09;;;5.15;79.78
76052;BME280;64751;48.708;9.710;2022-11-20T03:13:46;97104.34;;;5.19;79.69
76052;BME280;64751;48.708;9.710;2022-11-20T03:16:16;97108.78;;;5.18;79.43
76052;BME280;64751;48.708;9.710;2022-11-20T03:18:44;97106.44;;;5.17;79.96
76052;BME280;64751;48.708;9.710;2022-11-20T03:21:13;97109.84;;;5.17;80.11
76052;BME280;64751;48.708;9.710;2022-11-20T03:23:41;97104.56;;;5.12;79.10
76052;BME280;64751;48.708;9.710;2022-11-20T03:26:11;97098.31;;;5.13;79.72
76052;BME280;64751;48.708;9.710;2022-11-20T03:28:40;97104.31;;;5.13;79.78
76052;BME280;64751;48.708;9.710;2022-11-20T03:31:13;97106.72;;;5.20;80.51
76052;BME280;64751;48.708;9.710;2022-11-20T03:33:42;97109.09;;;5.22;80.27
76052;BME280;64751;48.708;9.710;2022-11-20T03:36:11;97108.31;;;5.21;80.13
76052;BME280;64751;48.708;9.710;2022-11-20T03:38:40;97111.94;;;5.20;80.32
76052;BME280;64751;48.708;9.710;2022-11-20T03:41:12;97114.56;;;5.20;80.93
76052;BME280;64751;48.708;9.710;2022-11-20T03:43:40;97109.09;;;5.22;81.42
76052;BME280;64751;48.708;9.710;2022-11-20T03:46:07;97108.34;;;5.26;81.75
76052;BME280;64751;48.708;9.710;2022-11-20T03:48:36;97112.28;;;5.34;82.26
76052;BME280;64751;48.708;9.710;2022-11-20T03:51:08;97120.97;;;5.39;82.06
76052;BME280;64751;48.708;9.710;2022-11-20T03:53:36;97111.03;;;5.41;81.55
76052;BME280;64751;48.708;9.710;2022-11-20T03:56:05;97110.00;;;5.42;81.90
76052;BME280;64751;48.708;9.710;2022-11-20T03:58:33;97112.94;;;5.51;82.65
76052;BME280;64751;48.708;9.710;2022-11-20T04:01:06;97111.13;;;5.56;82.55
76052;BME280;64751;48.708;9.710;2022-11-20T04:03:34;97112.72;;;5.62;82.38
76052;BME280;64751;48.708;9.710;2022-11-20T04:06:09;97104.88;;;5.67;82.10
76052;BME280;64751;48.708;9.710;2022-11-20T04:08:37;97108.81;;;5.70;81.92
76052;BME280;64751;48.708;9.710;2022-11-20T04:11:10;97111.22;;;5.71;82.21
76052;BME280;64751;48.708;9.710;2022-11-20T04:13:37;97118.53;;;5.74;82.15
76052;BME280;64751;48.708;9.710;2022-11-20T04:16:06;97111.47;;;5.75;82.22
76052;BME280;64751;48.708;9.710;2022-11-20T04:18:34;97102.31;;;5.77;82.19
76052;BME280;64751;48.708;9.710;2022-11-20T04:21:04;97099.19;;;5.80;82.04
76052;BME280;64751;48.708;9.710;2022-11-20T04:23:32;97100.28;;;5.84;81.37
76052;BME280;64751;48.708;9.710;2022-11-20T04:26:03;97094.78;;;5.86;81.65
76052;BME280;64751;48.708;9.710;2022-11-20T04:28:31;97098.47;;;5.85;81.45
76052;BME280;64751;48.708;9.710;2022-11-20T04:31:03;97094.47;;;5.82;81.30
76052;BME280;64751;48.708;9.710;2022-11-20T04:33:31;97099.69;;;5.77;81.45
76052;BME280;64751;48.708;9.710;2022-11-20T04:36:05;97091.03;;;5.77;81.01
76052;BME280;64751;48.708;9.710;2022-11-20T04:38:33;97086.06;;;5.75;80.72
76052;BME280;64751;48.708;9.710;2022-11-20T04:41:04;97087.88;;;5.70;80.94
76052;BME280;64751;48.708;9.710;2022-11-20T04:43:33;97085.50;;;5.68;81.33
76052;BME280;64751;48.708;9.710;2022-11-20T04:46:01;97083.91;;;5.62;81.43
76052;BME280;64751;48.708;9.710;2022-11-20T04:48:29;97089.16;;;5.62;81.24
76052;BME280;64751;48.708;9.710;2022-11-20T04:50:57;97087.84;;;5.65;81.31
76052;BME280;64751;48.708;9.710;2022-11-20T04:53:31;97091.25;;;5.65;81.60
76052;BME280;64751;48.708;9.710;2022-11-20T04:56:00;97087.31;;;5.63;81.71
76052;BME280;64751;48.708;9.710;2022-11-20T04:58:28;97090.22;;;5.66;81.90
76052;BME280;64751;48.708;9.710;2022-11-20T05:01:01;97080.00;;;5.70;81.96
76052;BME280;64751;48.708;9.710;2022-11-20T05:03:30;97081.34;;;5.72;82.11
76052;BME280;64751;48.708;9.710;2022-11-20T05:06:00;97082.66;;;5.75;82.18
76052;BME280;64751;48.708;9.710;2022-11-20T05:08:27;97077.41;;;5.75;82.23
76052;BME280;64751;48.708;9.710;2022-11-20T05:11:01;97075.84;;;5.79;81.89
76052;BME280;64751;48.708;9.710;2022-11-20T05:13:29;97084.50;;;5.79;82.41
76052;BME280;64751;48.708;9.710;2022-11-20T05:16:01;97083.47;;;5.80;82.01
76052;BME280;64751;48.708;9.710;2022-11-20T05:18:28;97079.31;;;5.84;81.81
76052;BME280;64751;48.708;9.710;2022-11-20T05:20:56;97081.94;;;5.84;81.30
76052;BME280;64751;48.708;9.710;2022-11-20T05:23:24;97085.09;;;5.87;82.34
76052;BME280;64751;48.708;9.710;2022-11-20T05:25:53;97087.19;;;5.90;81.94
76052;BME280;64751;48.708;9.710;2022-11-20T05:28:24;97084.84;;;5.93;81.67
76052;BME280;64751;48.708;9.710;2022-11-20T05:30:52;97081.97;;;5.95;82.29
76052;BME280;64751;48.708;9.710;2022-11-20T05:33:20;97075.94;;;5.89;81.87
76052;BME280;64751;48.708;9.710;2022-11-20T05:35:48;97086.16;;;5.96;81.79
76052;BME280;64751;48.708;9.710;2022-11-20T05:38:15;97082.75;;;5.95;82.41
76052;BME280;64751;48.708;9.710;2022-11-20T05:40:43;97078.53;;;5.94;82.17
76052;BME280;64751;48.708;9.710;2022-11-20T05:43:11;97080.41;;;5.94;82.32
76052;BME280;64751;48.708;9.710;2022-11-20T05:45:40;97076.72;;;5.95;82.42
76052;BME280;64751;48.708;9.710;2022-11-20T05:48:07;97078.84;;;5.98;82.17
76052;BME280;64751;48.708;9.710;2022-11-20T05:50:35;97081.19;;;5.99;82.20
76052;BME280;64751;48.708;9.710;2022-11-20T05:53:02;97080.16;;;6.00;82.34
76052;BME280;64751;48.708;9.710;2022-11-20T05:55:30;97075.72;;;6.01;82.22
76052;BME280;64751;48.708;9.710;2022-11-20T05:57:57;97085.66;;;6.04;81.50
76052;BME280;64751;48.708;9.710;2022-11-20T06:00:25;97090.13;;;6.08;81.07
76052;BME280;64751;48.708;9.710;2022-11-20T06:02:54;97081.75;;;6.11;80.86
76052;BME280;64751;48.708;9.710;2022-11-20T06:05:21;97087.25;;;6.15;80.87
76052;BME280;64751;48.708;9.710;2022-11-20T06:07:49;97088.84;;;6.16;80.37
76052;BME280;64751;48.708;9.710;2022-11-20T06:10:16;97078.88;;;6.18;79.86
76052;BME280;64751;48.708;9.710;2022-11-20T06:12:44;97077.81;;;6.19;79.89
76052;BME280;64751;48.708;9.710;2022-11-20T06:15:12;97084.38;;;6.21;80.08
76052;BME280;64751;48.708;9.710;2022-11-20T06:17:40;97085.97;;;6.22;80.05
76052;BME280;64751;48.708;9.710;2022-11-20T06:20:10;97079.44;;;6.25;80.67
76052;BME280;64751;48.708;9.710;2022-11-20T06:22:38;97087.28;;;6.25;79.22
76052;BME280;64751;48.708;9.710;2022-11-20T06:25:07;97084.41;;;6.26;79.21
76052;BME280;64751;48.708;9.710;2022-11-20T06:27:34;97083.88;;;6.29;79.07
76052;BME280;64751;48.708;9.710;2022-11-20T06:30:03;97085.72;;;6.34;78.83
76052;BME280;64751;48.708;9.710;2022-11-20T06:32:30;97089.13;;;6.34;79.12
76052;BME280;64751;48.708;9.710;2022-11-20T06:34:58;97082.84;;;6.35;78.64
76052;BME280;64751;48.708;9.710;2022-11-20T06:37:26;97091.75;;;6.39;78.51
76052;BME280;64751;48.708;9.710;2022-11-20T06:39:54;97093.88;;;6.42;79.12
76052;BME280;64751;48.708;9.710;2022-11-20T06:42:21;97090.44;;;6.42;78.58
76052;BME280;64751;48.708;9.710;2022-11-20T06:44:49;97089.41;;;6.43;77.43
76052;BME280;64751;48.708;9.710;2022-11-20T06:47:17;97094.41;;;6.44;78.88
76052;BME280;64751;48.708;9.710;2022-11-20T06:49:45;97094.41;;;6.44;78.27
76052;BME280;64751;48.708;9.710;2022-11-20T06:52:12;97103.56;;;6.42;77.48
76052;BME280;64751;48.708;9.710;2022-11-20T06:54:42;97101.22;;;6.45;78.28
76052;BME280;64751;48.708;9.710;2022-11-20T06:57:10;97103.06;;;6.45;78.97
76052;BME280;64751;48.708;9.710;2022-11-20T06:59:37;97100.97;;;6.47;78.13
76052;BME280;64751;48.708;9.710;2022-11-20T07:02:05;97103.59;;;6.47;78.10
76052;BME280;64751;48.708;9.710;2022-11-20T07:04:32;97107.25;;;6.46;79.21
76052;BME280;64751;48.708;9.710;2022-11-20T07:07:00;97112.25;;;6.47;78.04
76052;BME280;64751;48.708;9.710;2022-11-20T07:09:27;97105.13;;;6.48;77.52
76052;BME280;64751;48.708;9.710;2022-11-20T07:11:56;97105.94;;;6.48;77.08
76052;BME280;64751;48.708;9.710;2022-11-20T07:14:24;97110.66;;;6.51;77.03
76052;BME280;64751;48.708;9.710;2022-11-20T07:16:51;97105.16;;;6.53;76.81
76052;BME280;64751;48.708;9.710;2022-11-20T07:19:19;97108.56;;;6.53;77.19
76052;BME280;64751;48.708;9.710;2022-11-20T07:21:46;97105.16;;;6.53;76.84
76052;BME280;64751;48.708;9.710;2022-11-20T07:24:14;97110.91;;;6.55;76.88
76052;BME280;64751;48.708;9.710;2022-11-20T07:26:41;97120.63;;;6.59;76.47
76052;BME280;64751;48.708;9.710;2022-11-20T07:29:10;97118.81;;;6.60;76.77
76052;BME280;64751;48.708;9.710;2022-11-20T07:31:38;97117.22;;;6.59;76.78
76052;BME280;64751;48.708;9.710;2022-11-20T07:34:05;97114.59;;;6.59;77.20
76052;BME280;64751;48.708;9.710;2022-11-20T07:36:33;97113.81;;;6.53;76.53
76052;BME280;64751;48.708;9.710;2022-11-20T07:39:01;97115.66;;;6.53;76.71
76052;BME280;64751;48.708;9.710;2022-11-20T07:41:28;97118.78;;;6.55;76.40
76052;BME280;64751;48.708;9.710;2022-11-20T07:43:56;97114.88;;;6.57;77.03
76052;BME280;64751;48.708;9.710;2022-11-20T07:46:25;97117.75;;;6.56;76.83
76052;BME280;64751;48.708;9.710;2022-11-20T07:48:52;97117.75;;;6.56;76.89
76052;BME280;64751;48.708;9.710;2022-11-20T07:51:20;97117.75;;;6.56;76.00
76052;BME280;64751;48.708;9.710;2022-11-20T07:53:47;97116.69;;;6.57;77.00
76052;BME280;64751;48.708;9.710;2022-11-20T07:56:15;97124.31;;;6.58;77.07
76052;BME280;64751;48.708;9.710;2022-11-20T07:58:42;97121.69;;;6.64;76.23
76052;BME280;64751;48.708;9.710;2022-11-20T08:01:10;97123.00;;;6.66;76.63
76052;BME280;64751;48.708;9.710;2022-11-20T08:03:38;97118.81;;;6.70;77.23
76052;BME280;64751;48.708;9.710;2022-11-20T08:06:07;97114.63;;;6.69;76.36
76052;BME280;64751;48.708;9.710;2022-11-20T08:08:34;97117.25;;;6.69;77.20
76052;BME280;64751;48.708;9.710;2022-11-20T08:11:02;97120.38;;;6.71;76.40
76052;BME280;64751;48.708;9.710;2022-11-20T08:13:47;97134.31;;;6.72;76.25
76052;BME280;64751;48.708;9.710;2022-11-20T08:16:32;97120.38;;;6.71;76.29
76052;BME280;64751;48.708;9.710;2022-11-20T08:19:01;97123.28;;;6.75;76.10
76052;BME280;64751;48.708;9.710;2022-11-20T08:21:29;97122.22;;;6.76;75.62
76052;BME280;64751;48.708;9.710;2022-11-20T08:23:57;97117.50;;;6.78;76.04
76052;BME280;64751;48.708;9.710;2022-11-20T08:26:25;97114.38;;;6.81;75.68
76052;BME280;64751;48.708;9.710;2022-11-20T08:28:53;97115.66;;;6.78;75.19
76052;BME280;64751;48.708;9.710;2022-11-20T08:31:22;97119.06;;;6.84;74.75
76052;BME280;64751;48.708;9.710;2022-11-20T08:33:50;97125.38;;;6.78;75.11
76052;BME280;64751;48.708;9.710;2022-11-20T08:36:20;97130.91;;;6.76;76.28
76052;BME280;64751;48.708;9.710;2022-11-20T08:38:47;97126.97;;;6.79;75.74
76052;BME280;64751;48.708;9.710;2022-11-20T08:41:15;97130.38;;;6.79;76.16
76052;BME280;64751;48.708;9.710;2022-11-20T08:43:53;97127.22;;;6.82;76.38
76052;BME280;64751;48.708;9.710;2022-11-20T08:46:22;97121.72;;;6.79;75.41
76052;BME280;64751;48.708;9.710;2022-11-20T08:48:51;97128.81;;;6.83;74.67
76052;BME280;64751;48.708;9.710;2022-11-20T08:51:20;97131.94;;;6.80;75.62
76052;BME280;64751;48.708;9.710;2022-11-20T08:53:48;97127.22;;;6.77;74.86
76052;BME280;64751;48.708;9.710;2022-11-20T08:56:16;97135.63;;;6.79;75.59
76052;BME280;64751;48.708;9.710;2022-11-20T08:58:44;97130.63;;;6.83;75.48
76052;BME280;64751;48.708;9.710;2022-11-20T09:01:11;97127.75;;;6.84;75.63
76052;BME280;64751;48.708;9.710;2022-11-20T09:03:39;97130.09;;;6.81;75.42
76052;BME280;64751;48.708;9.710;2022-11-20T09:06:07;97136.94;;;6.87;76.07
76052;BME280;64751;48.708;9.710;2022-11-20T09:08:36;97139.28;;;6.93;75.71
76052;BME280;64751;48.708;9.710;2022-11-20T09:11:04;97133.25;;;6.98;75.31
76052;BME280;64751;48.708;9.710;2022-11-20T09:13:32;97128.78;;;6.98;74.25
76052;BME280;64751;48.708;9.710;2022-11-20T09:16:02;97133.78;;;7.05;74.56
76052;BME280;64751;48.708;9.710;2022-11-20T09:18:31;97136.41;;;7.05;74.09
76052;BME280;64751;48.708;9.710;2022-11-20T09:21:00;97134.28;;;7.02;74.73
76052;BME280;64751;48.708;9.710;2022-11-20T09:23:31;97141.41;;;7.01;74.92
76052;BME280;64751;48.708;9.710;2022-11-20T09:26:03;97140.34;;;6.92;74.20
76052;BME280;64751;48.708;9.710;2022-11-20T09:28:31;97138.75;;;6.91;75.03
76052;BME280;64751;48.708;9.710;2022-11-20T09:30:58;97140.34;;;6.92;75.39
76052;BME280;64751;48.708;9.710;2022-11-20T09:33:26;97130.38;;;6.79;74.44
76052;BME280;64751;48.708;9.710;2022-11-20T09:35:54;97145.06;;;6.85;75.43
76052;BME280;64751;48.708;9.710;2022-11-20T09:38:21;97150.84;;;6.82;75.43
76052;BME280;64751;48.708;9.710;2022-11-20T09:40:55;97146.13;;;6.79;75.62
76052;BME280;64751;48.708;9.710;2022-11-20T09:43:32;97144.78;;;6.82;74.93
76052;BME280;64751;48.708;9.710;2022-11-20T09:46:09;97154.50;;;6.91;75.58
76052;BME280;64751;48.708;9.710;2022-11-20T09:48:48;97145.59;;;6.92;74.74
76052;BME280;64751;48.708;9.710;2022-11-20T09:51:30;97150.84;;;6.92;75.15
76052;BME280;64751;48.708;9.710;2022-11-20T09:54:10;97144.81;;;6.97;74.45
76052;BME280;64751;48.708;9.710;2022-11-20T09:56:43;97147.41;;;7.02;75.83
76052;BME280;64751;48.708;9.710;2022-11-20T09:59:25;97152.94;;;7.00;74.88
76052;BME280;64751;48.708;9.710;2022-11-20T10:01:55;97151.38;;;6.99;74.44
76052;BME280;64751;48.708;9.710;2022-11-20T10:04:23;97159.75;;;6.91;75.40
76052;BME280;64751;48.708;9.710;2022-11-20T10:06:56;97155.31;;;6.92;75.25
76052;BME280;64751;48.708;9.710;2022-11-20T10:09:30;97160.28;;;6.93;75.99
76052;BME280;64751;48.708;9.710;2022-11-20T10:12:09;97160.56;;;6.92;75.15
76052;BME280;64751;48.708;9.710;2022-11-20T10:14:53;97160.81;;;6.95;75.88
76052;BME280;64751;48.708;9.710;2022-11-20T10:17:39;97160.81;;;6.95;75.86
76052;BME280;64751;48.708;9.710;2022-11-20T10:20:17;97154.78;;;6.95;75.10
76052;BME280;64751;48.708;9.710;2022-11-20T10:22:58;97154.50;;;6.91;75.42
76052;BME280;64751;48.708;9.710;2022-11-20T10:25:35;97155.31;;;6.92;75.01
76052;BME280;64751;48.708;9.710;2022-11-20T10:28:21;97162.91;;;6.83;75.75
76052;BME280;64751;48.708;9.710;2022-11-20T10:30:57;97156.09;;;6.87;75.55
76052;BME280;64751;48.708;9.710;2022-11-20T10:33:29;97152.16;;;6.85;75.63
76052;BME280;64751;48.708;9.710;2022-11-20T10:36:06;97144.03;;;6.81;75.69
76052;BME280;64751;48.708;9.710;2022-11-20T10:38:40;97157.66;;;6.93;76.13
76052;BME280;64751;48.708;9.710;2022-11-20T10:41:15;97151.88;;;6.86;74.68
76052;BME280;64751;48.708;9.710;2022-11-20T10:44:00;97152.41;;;6.93;75.11
76052;BME280;64751;48.708;9.710;2022-11-20T10:46:36;97146.66;;;6.96;76.14
76052;BME280;64751;48.708;9.710;2022-11-20T10:49:25;97146.66;;;6.96;75.81
76052;BME280;64751;48.708;9.710;2022-11-20T10:51:59;97145.84;;;6.96;75.24
76052;BME280;64751;48.708;9.710;2022-11-20T10:54:35;97147.16;;;6.98;75.42
76052;BME280;64751;48.708;9.710;2022-11-20T10:57:10;97140.34;;;7.02;75.74
76052;BME280;64751;48.708;9.710;2022-11-20T10:59:55;97141.41;;;7.01;75.31
76052;BME280;64751;48.708;9.710;2022-11-20T11:02:32;97133.53;;;7.01;76.04
76052;BME280;64751;48.708;9.710;2022-11-20T11:05:06;97125.13;;;6.99;76.14
76052;BME280;64751;48.708;9.710;2022-11-20T11:07:39;97135.63;;;7.04;76.05
76052;BME280;64751;48.708;9.710;2022-11-20T11:10:15;97133.78;;;7.05;76.14
76052;BME280;64751;48.708;9.710;2022-11-20T11:12:46;97138.75;;;7.06;77.10
76052;BME280;64751;48.708;9.710;2022-11-20T11:15:24;97144.03;;;7.01;77.92
76052;BME280;64751;48.708;9.710;2022-11-20T11:17:54;97145.59;;;7.02;77.91
76052;BME280;64751;48.708;9.710;2022-11-20T11:20:23;97148.47;;;6.91;78.47
76052;BME280;64751;48.708;9.710;2022-11-20T11:22:52;97139.28;;;6.93;79.05
76052;BME280;64751;48.708;9.710;2022-11-20T11:25:29;97154.53;;;6.96;80.01
76052;BME280;64751;48.708;9.710;2022-11-20T11:28:02;97151.09;;;6.91;79.60
76052;BME280;64751;48.708;9.710;2022-11-20T11:30:42;97141.13;;;6.93;79.75
76052;BME280;64751;48.708;9.710;2022-11-20T11:33:19;97148.75;;;6.99;80.48
76052;BME280;64751;48.708;9.710;2022-11-20T11:35:49;97151.38;;;6.89;80.28
76052;BME280;64751;48.708;9.710;2022-11-20T11:38:21;97139.03;;;6.90;80.49
76052;BME280;64751;48.708;9.710;2022-11-20T11:40:53;97130.38;;;6.84;80.84
76052;BME280;64751;48.708;9.710;2022-11-20T11:43:24;97134.28;;;6.82;80.75
76052;BME280;64751;48.708;9.710;2022-11-20T11:46:25;97132.72;;;6.81;81.06
76052;BME280;64751;48.708;9.710;2022-11-20T11:48:58;97130.88;;;6.86;80.89
76052;BME280;64751;48.708;9.710;2022-11-20T11:51:30;97128.00;;;6.88;81.62
76052;BME280;64751;48.708;9.710;2022-11-20T11:53:59;97119.59;;;6.91;81.34
76052;BME280;64751;48.708;9.710;2022-11-20T11:56:28;97117.50;;;6.98;81.32
76052;BME280;64751;48.708;9.710;2022-11-20T11:58:57;97113.06;;;7.03;81.46
76052;BME280;64751;48.708;9.710;2022-11-20T12:01:31;97114.38;;;7.06;80.91
76052;BME280;64751;48.708;9.710;2022-11-20T12:04:05;97113.06;;;7.03;81.30
76052;BME280;64751;48.708;9.710;2022-11-20T12:06:39;97105.69;;;7.05;81.27
76052;BME280;64751;48.708;9.710;2022-11-20T12:09:11;97105.66;;;7.15;81.44
76052;BME280;64751;48.708;9.710;2022-11-20T12:11:43;97114.06;;;7.22;81.67
76052;BME280;64751;48.708;9.710;2022-11-20T12:14:15;97101.44;;;7.35;81.81
76052;BME280;64751;48.708;9.710;2022-11-20T12:16:45;97104.59;;;7.42;81.53
76052;BME280;64751;48.708;9.710;2022-11-20T12:19:15;97103.50;;;7.48;81.20
76052;BME280;64751;48.708;9.710;2022-11-20T12:21:54;97104.03;;;7.60;80.44
76052;BME280;64751;48.708;9.710;2022-11-20T12:24:37;97101.91;;;7.62;80.85
76052;BME280;64751;48.708;9.710;2022-11-20T12:30:23;97093.72;;;7.73;79.74
76052;BME280;64751;48.708;9.710;2022-11-20T12:33:02;97090.53;;;7.81;80.59
76052;BME280;64751;48.708;9.710;2022-11-20T12:35:58;97087.38;;;7.79;79.02
76052;BME280;64751;48.708;9.710;2022-11-20T12:38:51;97082.94;;;7.75;80.27
76052;BME280;64751;48.708;9.710;2022-11-20T12:41:40;97082.94;;;7.75;79.85
76052;BME280;64751;48.708;9.710;2022-11-20T12:44:41;97075.34;;;7.68;79.34
76052;BME280;64751;48.708;9.710;2022-11-20T12:47:43;97061.19;;;7.54;79.06
76052;BME280;64751;48.708;9.710;2022-11-20T12:50:23;97070.91;;;7.59;78.58
76052;BME280;64751;48.708;9.710;2022-11-20T12:53:03;97074.03;;;7.61;79.04
76052;BME280;64751;48.708;9.710;2022-11-20T12:55:37;97076.44;;;7.57;78.67
76052;BME280;64751;48.708;9.710;2022-11-20T12:58:13;97077.47;;;7.61;77.73
76052;BME280;64751;48.708;9.710;2022-11-20T13:00:53;97074.03;;;7.61;78.24
76052;BME280;64751;48.708;9.710;2022-11-20T13:03:42;97074.03;;;7.61;77.45
76052;BME280;64751;48.708;9.710;2022-11-20T13:06:15;97072.22;;;7.61;79.00
76052;BME280;64751;48.708;9.710;2022-11-20T13:08:48;97072.44;;;7.70;78.26
76052;BME280;64751;48.708;9.710;2022-11-20T13:11:24;97070.03;;;7.78;78.50
76052;BME280;64751;48.708;9.710;2022-11-20T13:14:12;97065.81;;;7.82;78.61
76052;BME280;64751;48.708;9.710;2022-11-20T13:16:48;97058.19;;;7.81;78.44
76052;BME280;64751;48.708;9.710;2022-11-20T13:19:18;97062.94;;;7.79;78.34
76052;BME280;64751;48.708;9.710;2022-11-20T13:21:48;97064.25;;;7.81;79.18
76052;BME280;64751;48.708;9.710;2022-11-20T13:24:26;97061.84;;;7.85;78.95
76052;BME280;64751;48.708;9.710;2022-11-20T13:27:18;97062.13;;;7.88;78.82
76052;BME280;64751;48.708;9.710;2022-11-20T13:29:59;97055.28;;;7.87;78.99
76052;BME280;64751;48.708;9.710;2022-11-20T13:32:27;97055.78;;;7.89;77.96
76052;BME280;64751;48.708;9.710;2022-11-20T13:34:59;97058.41;;;7.94;77.53